sensor_id;sensor_type;location;lat;lon;timestamp;P1;durP1;ratioP1;P2;durP2;ratioP2
62788;SDS011;66401;42.016;21.454;2023-04-06T00:01:33;12.00;;;7.87;;
62788;SDS011;66401;42.016;21.454;2023-04-06T00:03:59;10.07;;;7.33;;
62788;SDS011;66401;42.016;21.454;2023-04-06T00:06:25;10.70;;;7.33;;
62788;SDS011;66401;42.016;21.454;2023-04-06T00:08:51;12.70;;;7.10;;
62788;SDS011;66401;42.016;21.454;2023-04-06T00:11:17;10.63;;;7.50;;
62788;SDS011;66401;42.016;21.454;2023-04-06T00:13:42;10.70;;;6.90;;
62788;SDS011;66401;42.016;21.454;2023-04-06T00:16:08;9.93;;;7.20;;
62788;SDS011;66401;42.016;21.454;2023-04-06T00:18:33;7.07;;;6.37;;
62788;SDS011;66401;42.016;21.454;2023-04-06T00:20:59;13.33;;;7.07;;
62788;SDS011;66401;42.016;21.454;2023-04-06T00:23:25;12.57;;;8.13;;
62788;SDS011;66401;42.016;21.454;2023-04-06T00:25:50;13.67;;;7.53;;
62788;SDS011;66401;42.016;21.454;2023-04-06T00:28:16;14.13;;;7.30;;
62788;SDS011;66401;42.016;21.454;2023-04-06T00:30:42;13.03;;;7.97;;
62788;SDS011;66401;42.016;21.454;2023-04-06T00:33:08;10.30;;;7.80;;
62788;SDS011;66401;42.016;21.454;2023-04-06T00:35:33;9.00;;;6.63;;
62788;SDS011;66401;42.016;21.454;2023-04-06T00:37:59;9.00;;;6.80;;
62788;SDS011;66401;42.016;21.454;2023-04-06T00:40:25;11.47;;;7.90;;
62788;SDS011;66401;42.016;21.454;2023-04-06T00:42:53;9.30;;;6.87;;
62788;SDS011;66401;42.016;21.454;2023-04-06T00:45:19;11.60;;;7.30;;
62788;SDS011;66401;42.016;21.454;2023-04-06T00:47:45;11.13;;;6.77;;
62788;SDS011;66401;42.016;21.454;2023-04-06T00:50:10;7.23;;;6.53;;
62788;SDS011;66401;42.016;21.454;2023-04-06T00:52:36;11.70;;;7.93;;
62788;SDS011;66401;42.016;21.454;2023-04-06T00:55:02;9.90;;;6.70;;
62788;SDS011;66401;42.016;21.454;2023-04-06T00:57:28;12.33;;;7.47;;
62788;SDS011;66401;42.016;21.454;2023-04-06T00:59:54;10.07;;;7.30;;
62788;SDS011;66401;42.016;21.454;2023-04-06T01:02:20;9.07;;;7.43;;
62788;SDS011;66401;42.016;21.454;2023-04-06T01:04:45;10.57;;;7.23;;
62788;SDS011;66401;42.016;21.454;2023-04-06T01:07:11;7.47;;;6.47;;
62788;SDS011;66401;42.016;21.454;2023-04-06T01:09:36;8.27;;;6.97;;
62788;SDS011;66401;42.016;21.454;2023-04-06T01:12:02;10.70;;;6.63;;
62788;SDS011;66401;42.016;21.454;2023-04-06T01:14:28;10.70;;;6.90;;
62788;SDS011;66401;42.016;21.454;2023-04-06T01:16:54;9.67;;;6.70;;
62788;SDS011;66401;42.016;21.454;2023-04-06T01:19:20;12.33;;;7.90;;
62788;SDS011;66401;42.016;21.454;2023-04-06T01:21:47;7.63;;;6.60;;
62788;SDS011;66401;42.016;21.454;2023-04-06T01:24:14;10.87;;;7.13;;
62788;SDS011;66401;42.016;21.454;2023-04-06T01:26:40;11.10;;;6.73;;
62788;SDS011;66401;42.016;21.454;2023-04-06T01:29:05;11.00;;;8.03;;
62788;SDS011;66401;42.016;21.454;2023-04-06T01:31:31;9.53;;;7.43;;
62788;SDS011;66401;42.016;21.454;2023-04-06T01:33:56;13.03;;;8.30;;
62788;SDS011;66401;42.016;21.454;2023-04-06T01:36:22;12.20;;;7.00;;
62788;SDS011;66401;42.016;21.454;2023-04-06T01:38:47;9.80;;;6.97;;
62788;SDS011;66401;42.016;21.454;2023-04-06T01:41:13;9.17;;;6.83;;
62788;SDS011;66401;42.016;21.454;2023-04-06T01:43:38;10.87;;;7.30;;
62788;SDS011;66401;42.016;21.454;2023-04-06T01:46:04;8.47;;;6.63;;
62788;SDS011;66401;42.016;21.454;2023-04-06T01:48:31;9.03;;;6.83;;
62788;SDS011;66401;42.016;21.454;2023-04-06T01:50:56;11.03;;;6.90;;
62788;SDS011;66401;42.016;21.454;2023-04-06T01:53:22;7.20;;;6.50;;
62788;SDS011;66401;42.016;21.454;2023-04-06T01:55:47;9.93;;;7.27;;
62788;SDS011;66401;42.016;21.454;2023-04-06T01:58:13;11.90;;;7.90;;
62788;SDS011;66401;42.016;21.454;2023-04-06T02:00:39;12.77;;;6.83;;
62788;SDS011;66401;42.016;21.454;2023-04-06T02:03:05;9.93;;;7.07;;
62788;SDS011;66401;42.016;21.454;2023-04-06T02:05:31;12.23;;;7.20;;
62788;SDS011;66401;42.016;21.454;2023-04-06T02:08:06;10.03;;;7.17;;
62788;SDS011;66401;42.016;21.454;2023-04-06T02:10:33;8.60;;;6.80;;
62788;SDS011;66401;42.016;21.454;2023-04-06T02:12:59;9.20;;;7.20;;
62788;SDS011;66401;42.016;21.454;2023-04-06T02:15:25;9.27;;;6.73;;
62788;SDS011;66401;42.016;21.454;2023-04-06T02:17:51;9.33;;;6.40;;
62788;SDS011;66401;42.016;21.454;2023-04-06T02:20:17;9.47;;;6.83;;
62788;SDS011;66401;42.016;21.454;2023-04-06T02:22:45;7.80;;;5.80;;
62788;SDS011;66401;42.016;21.454;2023-04-06T02:25:11;10.03;;;6.63;;
62788;SDS011;66401;42.016;21.454;2023-04-06T02:27:36;10.23;;;7.47;;
62788;SDS011;66401;42.016;21.454;2023-04-06T02:30:02;9.63;;;7.10;;
62788;SDS011;66401;42.016;21.454;2023-04-06T02:32:28;11.30;;;7.13;;
62788;SDS011;66401;42.016;21.454;2023-04-06T02:34:54;7.77;;;6.63;;
62788;SDS011;66401;42.016;21.454;2023-04-06T02:37:20;8.53;;;6.13;;
62788;SDS011;66401;42.016;21.454;2023-04-06T02:39:45;10.20;;;7.27;;
62788;SDS011;66401;42.016;21.454;2023-04-06T02:42:11;9.23;;;6.87;;
62788;SDS011;66401;42.016;21.454;2023-04-06T02:44:37;10.17;;;6.83;;
62788;SDS011;66401;42.016;21.454;2023-04-06T02:47:02;8.43;;;6.33;;
62788;SDS011;66401;42.016;21.454;2023-04-06T02:49:28;11.17;;;6.60;;
62788;SDS011;66401;42.016;21.454;2023-04-06T02:51:53;11.13;;;7.13;;
62788;SDS011;66401;42.016;21.454;2023-04-06T02:54:19;10.37;;;7.27;;
62788;SDS011;66401;42.016;21.454;2023-04-06T02:56:44;9.37;;;6.47;;
62788;SDS011;66401;42.016;21.454;2023-04-06T02:59:10;10.43;;;6.83;;
62788;SDS011;66401;42.016;21.454;2023-04-06T03:01:36;9.17;;;7.70;;
62788;SDS011;66401;42.016;21.454;2023-04-06T03:04:02;12.27;;;8.20;;
62788;SDS011;66401;42.016;21.454;2023-04-06T03:06:27;9.30;;;7.70;;
62788;SDS011;66401;42.016;21.454;2023-04-06T03:08:53;13.60;;;8.70;;
62788;SDS011;66401;42.016;21.454;2023-04-06T03:11:18;9.60;;;7.67;;
62788;SDS011;66401;42.016;21.454;2023-04-06T03:13:44;15.33;;;8.50;;
62788;SDS011;66401;42.016;21.454;2023-04-06T03:16:10;12.70;;;7.93;;
62788;SDS011;66401;42.016;21.454;2023-04-06T03:18:35;12.23;;;8.03;;
62788;SDS011;66401;42.016;21.454;2023-04-06T03:21:01;11.77;;;8.30;;
62788;SDS011;66401;42.016;21.454;2023-04-06T03:23:26;14.73;;;7.77;;
62788;SDS011;66401;42.016;21.454;2023-04-06T03:25:52;11.77;;;7.57;;
62788;SDS011;66401;42.016;21.454;2023-04-06T03:28:17;12.13;;;7.70;;
62788;SDS011;66401;42.016;21.454;2023-04-06T03:30:43;11.77;;;8.43;;
62788;SDS011;66401;42.016;21.454;2023-04-06T03:33:08;12.27;;;8.03;;
62788;SDS011;66401;42.016;21.454;2023-04-06T03:35:34;11.90;;;7.57;;
62788;SDS011;66401;42.016;21.454;2023-04-06T03:38:01;10.73;;;7.87;;
62788;SDS011;66401;42.016;21.454;2023-04-06T03:40:27;9.47;;;7.73;;
62788;SDS011;66401;42.016;21.454;2023-04-06T03:42:53;11.73;;;7.97;;
62788;SDS011;66401;42.016;21.454;2023-04-06T03:45:18;11.57;;;7.90;;
62788;SDS011;66401;42.016;21.454;2023-04-06T03:47:43;10.47;;;8.20;;
62788;SDS011;66401;42.016;21.454;2023-04-06T03:50:09;12.77;;;7.43;;
62788;SDS011;66401;42.016;21.454;2023-04-06T03:52:35;11.87;;;8.10;;
62788;SDS011;66401;42.016;21.454;2023-04-06T03:55:01;13.07;;;7.90;;
62788;SDS011;66401;42.016;21.454;2023-04-06T03:57:27;9.00;;;6.60;;
62788;SDS011;66401;42.016;21.454;2023-04-06T03:59:52;13.43;;;8.00;;
62788;SDS011;66401;42.016;21.454;2023-04-06T04:02:18;11.70;;;7.23;;
62788;SDS011;66401;42.016;21.454;2023-04-06T04:04:43;14.27;;;7.90;;
62788;SDS011;66401;42.016;21.454;2023-04-06T04:07:08;10.60;;;7.23;;
62788;SDS011;66401;42.016;21.454;2023-04-06T04:09:34;10.60;;;7.07;;
62788;SDS011;66401;42.016;21.454;2023-04-06T04:12:00;11.67;;;7.60;;
62788;SDS011;66401;42.016;21.454;2023-04-06T04:14:25;11.33;;;7.03;;
62788;SDS011;66401;42.016;21.454;2023-04-06T04:16:51;10.20;;;7.67;;
62788;SDS011;66401;42.016;21.454;2023-04-06T04:19:17;7.90;;;7.10;;
62788;SDS011;66401;42.016;21.454;2023-04-06T04:21:43;13.40;;;7.93;;
62788;SDS011;66401;42.016;21.454;2023-04-06T04:24:10;10.63;;;7.37;;
62788;SDS011;66401;42.016;21.454;2023-04-06T04:26:35;10.30;;;7.30;;
62788;SDS011;66401;42.016;21.454;2023-04-06T04:29:01;14.17;;;8.00;;
62788;SDS011;66401;42.016;21.454;2023-04-06T04:31:26;9.97;;;7.60;;
62788;SDS011;66401;42.016;21.454;2023-04-06T04:33:52;10.47;;;6.83;;
62788;SDS011;66401;42.016;21.454;2023-04-06T04:36:17;10.43;;;6.70;;
62788;SDS011;66401;42.016;21.454;2023-04-06T04:38:43;11.60;;;7.43;;
62788;SDS011;66401;42.016;21.454;2023-04-06T04:41:09;8.73;;;6.97;;
62788;SDS011;66401;42.016;21.454;2023-04-06T04:43:34;9.47;;;6.80;;
62788;SDS011;66401;42.016;21.454;2023-04-06T04:46:00;13.10;;;7.77;;
62788;SDS011;66401;42.016;21.454;2023-04-06T04:48:25;12.07;;;7.63;;
62788;SDS011;66401;42.016;21.454;2023-04-06T04:50:51;13.93;;;8.60;;
62788;SDS011;66401;42.016;21.454;2023-04-06T04:53:16;12.60;;;7.20;;
62788;SDS011;66401;42.016;21.454;2023-04-06T04:55:42;13.70;;;7.97;;
62788;SDS011;66401;42.016;21.454;2023-04-06T04:58:07;13.73;;;7.97;;
62788;SDS011;66401;42.016;21.454;2023-04-06T05:00:36;13.77;;;8.47;;
62788;SDS011;66401;42.016;21.454;2023-04-06T05:03:02;11.73;;;7.80;;
62788;SDS011;66401;42.016;21.454;2023-04-06T05:05:29;11.60;;;7.83;;
62788;SDS011;66401;42.016;21.454;2023-04-06T05:07:56;11.63;;;7.67;;
62788;SDS011;66401;42.016;21.454;2023-04-06T05:10:21;10.67;;;7.27;;
62788;SDS011;66401;42.016;21.454;2023-04-06T05:12:47;12.17;;;8.13;;
62788;SDS011;66401;42.016;21.454;2023-04-06T05:15:13;14.27;;;8.43;;
62788;SDS011;66401;42.016;21.454;2023-04-06T05:17:38;16.37;;;9.30;;
62788;SDS011;66401;42.016;21.454;2023-04-06T05:20:04;12.63;;;9.23;;
62788;SDS011;66401;42.016;21.454;2023-04-06T05:22:31;14.93;;;10.27;;
62788;SDS011;66401;42.016;21.454;2023-04-06T05:24:56;14.73;;;9.47;;
62788;SDS011;66401;42.016;21.454;2023-04-06T05:27:22;12.93;;;9.23;;
62788;SDS011;66401;42.016;21.454;2023-04-06T05:29:48;13.10;;;8.90;;
62788;SDS011;66401;42.016;21.454;2023-04-06T05:32:14;11.23;;;8.20;;
62788;SDS011;66401;42.016;21.454;2023-04-06T05:34:39;18.73;;;8.80;;
62788;SDS011;66401;42.016;21.454;2023-04-06T05:37:05;15.10;;;8.67;;
62788;SDS011;66401;42.016;21.454;2023-04-06T05:39:30;13.43;;;7.13;;
62788;SDS011;66401;42.016;21.454;2023-04-06T05:41:56;12.83;;;7.73;;
62788;SDS011;66401;42.016;21.454;2023-04-06T05:44:21;11.40;;;7.87;;
62788;SDS011;66401;42.016;21.454;2023-04-06T05:46:47;11.50;;;7.73;;
62788;SDS011;66401;42.016;21.454;2023-04-06T05:49:12;9.77;;;7.97;;
62788;SDS011;66401;42.016;21.454;2023-04-06T05:51:38;14.33;;;9.03;;
62788;SDS011;66401;42.016;21.454;2023-04-06T05:54:03;13.17;;;9.17;;
62788;SDS011;66401;42.016;21.454;2023-04-06T05:56:29;15.07;;;10.23;;
62788;SDS011;66401;42.016;21.454;2023-04-06T05:58:55;15.00;;;10.37;;
62788;SDS011;66401;42.016;21.454;2023-04-06T06:01:20;15.57;;;8.80;;
62788;SDS011;66401;42.016;21.454;2023-04-06T06:03:46;16.40;;;9.77;;
62788;SDS011;66401;42.016;21.454;2023-04-06T06:06:11;18.83;;;10.37;;
62788;SDS011;66401;42.016;21.454;2023-04-06T06:08:37;17.10;;;10.03;;
62788;SDS011;66401;42.016;21.454;2023-04-06T06:11:03;16.53;;;11.13;;
62788;SDS011;66401;42.016;21.454;2023-04-06T06:13:28;16.83;;;10.90;;
62788;SDS011;66401;42.016;21.454;2023-04-06T06:15:54;18.23;;;12.33;;
62788;SDS011;66401;42.016;21.454;2023-04-06T06:18:20;20.37;;;11.03;;
62788;SDS011;66401;42.016;21.454;2023-04-06T06:20:45;20.10;;;12.17;;
62788;SDS011;66401;42.016;21.454;2023-04-06T06:23:11;18.83;;;12.17;;
62788;SDS011;66401;42.016;21.454;2023-04-06T06:25:36;20.70;;;11.87;;
62788;SDS011;66401;42.016;21.454;2023-04-06T06:28:02;19.47;;;11.70;;
62788;SDS011;66401;42.016;21.454;2023-04-06T06:30:27;17.63;;;11.67;;
62788;SDS011;66401;42.016;21.454;2023-04-06T06:32:53;17.27;;;10.53;;
62788;SDS011;66401;42.016;21.454;2023-04-06T06:35:18;17.47;;;13.03;;
62788;SDS011;66401;42.016;21.454;2023-04-06T06:37:44;21.80;;;12.97;;
62788;SDS011;66401;42.016;21.454;2023-04-06T06:40:09;18.40;;;12.27;;
62788;SDS011;66401;42.016;21.454;2023-04-06T06:42:38;18.53;;;11.70;;
62788;SDS011;66401;42.016;21.454;2023-04-06T06:45:04;20.20;;;13.00;;
62788;SDS011;66401;42.016;21.454;2023-04-06T06:47:30;21.83;;;12.60;;
62788;SDS011;66401;42.016;21.454;2023-04-06T06:49:55;19.03;;;12.23;;
62788;SDS011;66401;42.016;21.454;2023-04-06T06:52:21;21.03;;;12.67;;
62788;SDS011;66401;42.016;21.454;2023-04-06T06:54:48;19.07;;;12.33;;
62788;SDS011;66401;42.016;21.454;2023-04-06T06:57:14;20.33;;;12.47;;
62788;SDS011;66401;42.016;21.454;2023-04-06T06:59:40;19.67;;;12.27;;
62788;SDS011;66401;42.016;21.454;2023-04-06T07:02:05;15.53;;;11.60;;
62788;SDS011;66401;42.016;21.454;2023-04-06T07:04:31;16.27;;;11.83;;
62788;SDS011;66401;42.016;21.454;2023-04-06T07:06:56;20.17;;;11.33;;
62788;SDS011;66401;42.016;21.454;2023-04-06T07:09:22;18.40;;;11.37;;
62788;SDS011;66401;42.016;21.454;2023-04-06T07:11:48;15.93;;;11.20;;
62788;SDS011;66401;42.016;21.454;2023-04-06T07:14:14;17.40;;;11.70;;
62788;SDS011;66401;42.016;21.454;2023-04-06T07:16:41;16.43;;;11.67;;
62788;SDS011;66401;42.016;21.454;2023-04-06T07:19:06;17.53;;;10.97;;
62788;SDS011;66401;42.016;21.454;2023-04-06T07:21:32;16.97;;;10.30;;
62788;SDS011;66401;42.016;21.454;2023-04-06T07:23:57;20.23;;;12.07;;
62788;SDS011;66401;42.016;21.454;2023-04-06T07:26:23;17.30;;;11.30;;
62788;SDS011;66401;42.016;21.454;2023-04-06T07:28:49;17.40;;;11.10;;
62788;SDS011;66401;42.016;21.454;2023-04-06T07:31:14;19.20;;;11.00;;
62788;SDS011;66401;42.016;21.454;2023-04-06T07:33:40;18.60;;;9.50;;
62788;SDS011;66401;42.016;21.454;2023-04-06T07:36:05;17.03;;;9.93;;
62788;SDS011;66401;42.016;21.454;2023-04-06T07:38:31;22.77;;;10.77;;
62788;SDS011;66401;42.016;21.454;2023-04-06T07:40:56;15.80;;;9.73;;
62788;SDS011;66401;42.016;21.454;2023-04-06T07:43:22;20.23;;;9.67;;
62788;SDS011;66401;42.016;21.454;2023-04-06T07:45:47;11.40;;;9.40;;
62788;SDS011;66401;42.016;21.454;2023-04-06T07:48:13;13.70;;;9.13;;
62788;SDS011;66401;42.016;21.454;2023-04-06T07:50:39;14.50;;;8.47;;
62788;SDS011;66401;42.016;21.454;2023-04-06T07:53:04;13.90;;;8.57;;
62788;SDS011;66401;42.016;21.454;2023-04-06T07:55:30;12.77;;;8.33;;
62788;SDS011;66401;42.016;21.454;2023-04-06T07:57:55;11.37;;;8.03;;
62788;SDS011;66401;42.016;21.454;2023-04-06T08:00:21;12.07;;;7.90;;
62788;SDS011;66401;42.016;21.454;2023-04-06T08:02:47;15.03;;;9.60;;
62788;SDS011;66401;42.016;21.454;2023-04-06T08:05:12;14.20;;;8.20;;
62788;SDS011;66401;42.016;21.454;2023-04-06T08:07:38;15.83;;;7.93;;
62788;SDS011;66401;42.016;21.454;2023-04-06T08:10:03;10.80;;;7.30;;
62788;SDS011;66401;42.016;21.454;2023-04-06T08:12:29;12.30;;;7.80;;
62788;SDS011;66401;42.016;21.454;2023-04-06T08:14:55;13.07;;;7.87;;
62788;SDS011;66401;42.016;21.454;2023-04-06T08:17:21;11.60;;;7.33;;
62788;SDS011;66401;42.016;21.454;2023-04-06T08:19:47;11.70;;;7.60;;
62788;SDS011;66401;42.016;21.454;2023-04-06T08:22:13;11.17;;;7.17;;
62788;SDS011;66401;42.016;21.454;2023-04-06T08:24:38;13.30;;;8.70;;
62788;SDS011;66401;42.016;21.454;2023-04-06T08:27:04;10.60;;;8.00;;
62788;SDS011;66401;42.016;21.454;2023-04-06T08:29:29;12.03;;;7.43;;
62788;SDS011;66401;42.016;21.454;2023-04-06T08:31:55;12.67;;;7.77;;
62788;SDS011;66401;42.016;21.454;2023-04-06T08:34:21;12.33;;;8.50;;
62788;SDS011;66401;42.016;21.454;2023-04-06T08:36:47;13.70;;;8.93;;
62788;SDS011;66401;42.016;21.454;2023-04-06T08:39:13;7.10;;;5.20;;
62788;SDS011;66401;42.016;21.454;2023-04-06T08:41:41;12.10;;;8.03;;
62788;SDS011;66401;42.016;21.454;2023-04-06T08:44:08;11.87;;;7.53;;
62788;SDS011;66401;42.016;21.454;2023-04-06T08:46:33;12.87;;;7.80;;
62788;SDS011;66401;42.016;21.454;2023-04-06T08:49:00;10.80;;;7.70;;
62788;SDS011;66401;42.016;21.454;2023-04-06T08:51:27;9.77;;;6.70;;
62788;SDS011;66401;42.016;21.454;2023-04-06T08:53:55;11.93;;;6.60;;
62788;SDS011;66401;42.016;21.454;2023-04-06T08:56:23;8.90;;;6.00;;
62788;SDS011;66401;42.016;21.454;2023-04-06T08:58:50;11.83;;;7.07;;
62788;SDS011;66401;42.016;21.454;2023-04-06T09:01:17;10.63;;;6.70;;
62788;SDS011;66401;42.016;21.454;2023-04-06T09:03:46;11.90;;;7.00;;
62788;SDS011;66401;42.016;21.454;2023-04-06T09:06:11;13.37;;;7.27;;
62788;SDS011;66401;42.016;21.454;2023-04-06T09:08:38;8.53;;;6.50;;
62788;SDS011;66401;42.016;21.454;2023-04-06T09:11:05;10.10;;;6.77;;
62788;SDS011;66401;42.016;21.454;2023-04-06T09:13:31;9.30;;;6.67;;
62788;SDS011;66401;42.016;21.454;2023-04-06T09:16:08;9.80;;;6.57;;
62788;SDS011;66401;42.016;21.454;2023-04-06T09:18:34;11.10;;;6.80;;
62788;SDS011;66401;42.016;21.454;2023-04-06T09:21:03;11.67;;;7.40;;
62788;SDS011;66401;42.016;21.454;2023-04-06T09:23:31;9.53;;;7.70;;
62788;SDS011;66401;42.016;21.454;2023-04-06T09:26:06;10.53;;;7.37;;
62788;SDS011;66401;42.016;21.454;2023-04-06T09:31:15;12.23;;;7.87;;
62788;SDS011;66401;42.016;21.454;2023-04-06T09:33:46;15.03;;;7.60;;
62788;SDS011;66401;42.016;21.454;2023-04-06T09:36:11;10.50;;;6.63;;
62788;SDS011;66401;42.016;21.454;2023-04-06T09:38:50;9.43;;;7.57;;
62788;SDS011;66401;42.016;21.454;2023-04-06T09:41:28;10.80;;;7.40;;
62788;SDS011;66401;42.016;21.454;2023-04-06T09:44:05;12.60;;;7.17;;
62788;SDS011;66401;42.016;21.454;2023-04-06T09:46:33;9.07;;;7.33;;
62788;SDS011;66401;42.016;21.454;2023-04-06T09:49:06;8.20;;;6.77;;
62788;SDS011;66401;42.016;21.454;2023-04-06T09:51:36;9.93;;;6.37;;
62788;SDS011;66401;42.016;21.454;2023-04-06T09:54:04;9.03;;;6.40;;
62788;SDS011;66401;42.016;21.454;2023-04-06T09:56:33;8.23;;;6.67;;
62788;SDS011;66401;42.016;21.454;2023-04-06T09:59:12;11.73;;;7.27;;
62788;SDS011;66401;42.016;21.454;2023-04-06T10:01:39;9.67;;;7.53;;
62788;SDS011;66401;42.016;21.454;2023-04-06T10:07:01;10.63;;;6.40;;
62788;SDS011;66401;42.016;21.454;2023-04-06T10:09:29;10.97;;;7.43;;
62788;SDS011;66401;42.016;21.454;2023-04-06T10:12:02;10.13;;;5.97;;
62788;SDS011;66401;42.016;21.454;2023-04-06T10:14:28;9.10;;;6.83;;
62788;SDS011;66401;42.016;21.454;2023-04-06T10:16:55;9.93;;;6.60;;
62788;SDS011;66401;42.016;21.454;2023-04-06T10:19:24;11.70;;;7.00;;
62788;SDS011;66401;42.016;21.454;2023-04-06T10:21:54;11.40;;;8.30;;
62788;SDS011;66401;42.016;21.454;2023-04-06T10:24:23;14.90;;;8.70;;
62788;SDS011;66401;42.016;21.454;2023-04-06T10:27:02;16.67;;;9.03;;
62788;SDS011;66401;42.016;21.454;2023-04-06T10:29:28;9.60;;;7.53;;
62788;SDS011;66401;42.016;21.454;2023-04-06T10:32:08;15.23;;;9.43;;
62788;SDS011;66401;42.016;21.454;2023-04-06T10:34:36;12.80;;;8.20;;
62788;SDS011;66401;42.016;21.454;2023-04-06T10:37:14;12.57;;;7.80;;
62788;SDS011;66401;42.016;21.454;2023-04-06T10:39:52;12.13;;;8.33;;
62788;SDS011;66401;42.016;21.454;2023-04-06T10:42:36;14.00;;;8.87;;
62788;SDS011;66401;42.016;21.454;2023-04-06T10:45:04;13.83;;;9.20;;
62788;SDS011;66401;42.016;21.454;2023-04-06T10:48:14;12.93;;;8.53;;
62788;SDS011;66401;42.016;21.454;2023-04-06T10:50:21;13.30;;;8.27;;
62788;SDS011;66401;42.016;21.454;2023-04-06T10:52:47;11.97;;;8.57;;
62788;SDS011;66401;42.016;21.454;2023-04-06T10:55:24;11.60;;;8.47;;
62788;SDS011;66401;42.016;21.454;2023-04-06T10:57:51;10.57;;;8.67;;
62788;SDS011;66401;42.016;21.454;2023-04-06T11:00:17;10.60;;;7.47;;
62788;SDS011;66401;42.016;21.454;2023-04-06T11:02:44;12.07;;;7.60;;
62788;SDS011;66401;42.016;21.454;2023-04-06T11:05:11;11.13;;;8.03;;
62788;SDS011;66401;42.016;21.454;2023-04-06T11:07:36;10.77;;;7.90;;
62788;SDS011;66401;42.016;21.454;2023-04-06T11:10:02;8.93;;;6.90;;
62788;SDS011;66401;42.016;21.454;2023-04-06T11:12:28;11.10;;;7.20;;
62788;SDS011;66401;42.016;21.454;2023-04-06T11:14:56;10.23;;;8.23;;
62788;SDS011;66401;42.016;21.454;2023-04-06T11:17:34;11.97;;;7.40;;
62788;SDS011;66401;42.016;21.454;2023-04-06T11:20:01;10.03;;;6.77;;
62788;SDS011;66401;42.016;21.454;2023-04-06T11:22:28;12.93;;;7.80;;
62788;SDS011;66401;42.016;21.454;2023-04-06T11:25:07;12.13;;;6.63;;
62788;SDS011;66401;42.016;21.454;2023-04-06T11:27:34;10.97;;;6.70;;
62788;SDS011;66401;42.016;21.454;2023-04-06T11:30:00;8.30;;;6.87;;
62788;SDS011;66401;42.016;21.454;2023-04-06T11:32:27;7.37;;;6.00;;
62788;SDS011;66401;42.016;21.454;2023-04-06T11:34:52;7.10;;;6.23;;
62788;SDS011;66401;42.016;21.454;2023-04-06T11:37:18;8.53;;;6.30;;
62788;SDS011;66401;42.016;21.454;2023-04-06T11:39:50;7.73;;;6.30;;
62788;SDS011;66401;42.016;21.454;2023-04-06T11:42:24;9.07;;;6.50;;
62788;SDS011;66401;42.016;21.454;2023-04-06T11:44:59;9.90;;;6.60;;
62788;SDS011;66401;42.016;21.454;2023-04-06T11:47:29;7.93;;;5.97;;
62788;SDS011;66401;42.016;21.454;2023-04-06T11:49:55;7.70;;;6.53;;
62788;SDS011;66401;42.016;21.454;2023-04-06T11:52:24;6.60;;;5.83;;
62788;SDS011;66401;42.016;21.454;2023-04-06T11:54:53;10.47;;;6.43;;
62788;SDS011;66401;42.016;21.454;2023-04-06T11:57:19;7.63;;;5.50;;
62788;SDS011;66401;42.016;21.454;2023-04-06T11:59:46;10.70;;;6.37;;
62788;SDS011;66401;42.016;21.454;2023-04-06T12:02:12;8.83;;;6.67;;
62788;SDS011;66401;42.016;21.454;2023-04-06T12:04:38;9.13;;;6.10;;
62788;SDS011;66401;42.016;21.454;2023-04-06T12:07:03;7.33;;;5.83;;
62788;SDS011;66401;42.016;21.454;2023-04-06T12:09:30;9.00;;;6.07;;
62788;SDS011;66401;42.016;21.454;2023-04-06T12:11:56;6.80;;;5.97;;
62788;SDS011;66401;42.016;21.454;2023-04-06T12:14:21;8.10;;;5.73;;
62788;SDS011;66401;42.016;21.454;2023-04-06T12:16:47;10.80;;;6.07;;
62788;SDS011;66401;42.016;21.454;2023-04-06T12:19:15;11.07;;;6.23;;
62788;SDS011;66401;42.016;21.454;2023-04-06T12:21:41;8.13;;;6.13;;
62788;SDS011;66401;42.016;21.454;2023-04-06T12:24:07;9.43;;;6.63;;
62788;SDS011;66401;42.016;21.454;2023-04-06T12:26:33;6.90;;;5.90;;
62788;SDS011;66401;42.016;21.454;2023-04-06T12:28:59;8.97;;;5.70;;
62788;SDS011;66401;42.016;21.454;2023-04-06T12:31:35;6.13;;;5.20;;
62788;SDS011;66401;42.016;21.454;2023-04-06T12:34:01;6.87;;;5.87;;
62788;SDS011;66401;42.016;21.454;2023-04-06T12:36:28;9.27;;;5.67;;
62788;SDS011;66401;42.016;21.454;2023-04-06T12:38:54;8.60;;;6.10;;
62788;SDS011;66401;42.016;21.454;2023-04-06T12:41:20;6.97;;;6.13;;
62788;SDS011;66401;42.016;21.454;2023-04-06T12:43:46;9.10;;;6.40;;
62788;SDS011;66401;42.016;21.454;2023-04-06T12:46:12;7.70;;;6.13;;
62788;SDS011;66401;42.016;21.454;2023-04-06T12:48:38;7.83;;;5.97;;
62788;SDS011;66401;42.016;21.454;2023-04-06T12:51:04;12.17;;;6.27;;
62788;SDS011;66401;42.016;21.454;2023-04-06T12:53:31;7.33;;;6.20;;
62788;SDS011;66401;42.016;21.454;2023-04-06T12:55:57;8.10;;;6.17;;
62788;SDS011;66401;42.016;21.454;2023-04-06T12:58:24;8.93;;;6.03;;
62788;SDS011;66401;42.016;21.454;2023-04-06T13:00:53;7.23;;;5.53;;
62788;SDS011;66401;42.016;21.454;2023-04-06T13:03:19;7.20;;;5.53;;
62788;SDS011;66401;42.016;21.454;2023-04-06T13:05:46;6.87;;;5.27;;
62788;SDS011;66401;42.016;21.454;2023-04-06T13:08:13;6.83;;;5.73;;
62788;SDS011;66401;42.016;21.454;2023-04-06T13:10:48;7.03;;;5.60;;
62788;SDS011;66401;42.016;21.454;2023-04-06T13:13:14;8.27;;;5.80;;
62788;SDS011;66401;42.016;21.454;2023-04-06T13:15:40;13.50;;;6.53;;
62788;SDS011;66401;42.016;21.454;2023-04-06T13:18:06;6.37;;;5.70;;
62788;SDS011;66401;42.016;21.454;2023-04-06T13:20:32;12.77;;;5.90;;
62788;SDS011;66401;42.016;21.454;2023-04-06T13:22:58;10.87;;;7.30;;
62788;SDS011;66401;42.016;21.454;2023-04-06T13:25:24;8.43;;;6.30;;
62788;SDS011;66401;42.016;21.454;2023-04-06T13:27:49;9.87;;;7.43;;
62788;SDS011;66401;42.016;21.454;2023-04-06T13:30:15;11.93;;;6.20;;
62788;SDS011;66401;42.016;21.454;2023-04-06T13:32:41;7.80;;;6.03;;
62788;SDS011;66401;42.016;21.454;2023-04-06T13:35:06;12.40;;;7.80;;
62788;SDS011;66401;42.016;21.454;2023-04-06T13:37:33;12.17;;;6.93;;
62788;SDS011;66401;42.016;21.454;2023-04-06T13:39:58;9.40;;;6.57;;
62788;SDS011;66401;42.016;21.454;2023-04-06T13:42:24;8.63;;;6.03;;
62788;SDS011;66401;42.016;21.454;2023-04-06T13:44:50;9.23;;;6.57;;
62788;SDS011;66401;42.016;21.454;2023-04-06T13:47:16;8.40;;;6.97;;
62788;SDS011;66401;42.016;21.454;2023-04-06T13:49:41;10.20;;;7.77;;
62788;SDS011;66401;42.016;21.454;2023-04-06T13:52:07;13.23;;;8.73;;
62788;SDS011;66401;42.016;21.454;2023-04-06T13:54:34;11.10;;;7.87;;
62788;SDS011;66401;42.016;21.454;2023-04-06T13:57:00;10.80;;;7.80;;
62788;SDS011;66401;42.016;21.454;2023-04-06T13:59:31;13.20;;;7.73;;
62788;SDS011;66401;42.016;21.454;2023-04-06T14:01:59;10.03;;;7.47;;
62788;SDS011;66401;42.016;21.454;2023-04-06T14:04:25;11.77;;;7.30;;
62788;SDS011;66401;42.016;21.454;2023-04-06T14:06:50;11.97;;;7.27;;
62788;SDS011;66401;42.016;21.454;2023-04-06T14:09:16;11.57;;;6.87;;
62788;SDS011;66401;42.016;21.454;2023-04-06T14:11:41;14.27;;;7.77;;
62788;SDS011;66401;42.016;21.454;2023-04-06T14:14:06;9.23;;;6.83;;
62788;SDS011;66401;42.016;21.454;2023-04-06T14:16:32;10.57;;;6.53;;
62788;SDS011;66401;42.016;21.454;2023-04-06T14:18:57;7.70;;;6.40;;
62788;SDS011;66401;42.016;21.454;2023-04-06T14:21:23;7.70;;;5.27;;
62788;SDS011;66401;42.016;21.454;2023-04-06T14:23:49;6.20;;;5.60;;
62788;SDS011;66401;42.016;21.454;2023-04-06T14:26:14;7.70;;;6.17;;